sensor_id;sensor_type;location;lat;lon;timestamp;pressure;altitude;pressure_sealevel;temperature;humidity
51245;BME280;37840;47.562;18.738;2023-04-23T00:01:03;99505.31;;;11.55;59.71
51245;BME280;37840;47.562;18.738;2023-04-23T00:03:34;99502.88;;;11.40;60.24
51245;BME280;37840;47.562;18.738;2023-04-23T00:06:04;99499.97;;;11.32;59.86
51245;BME280;37840;47.562;18.738;2023-04-23T00:08:31;99503.97;;;11.27;60.28
51245;BME280;37840;47.562;18.738;2023-04-23T00:10:58;99499.25;;;11.19;60.04
51245;BME280;37840;47.562;18.738;2023-04-23T00:13:24;99497.56;;;11.18;59.61
51245;BME280;37840;47.562;18.738;2023-04-23T00:15:50;99500.69;;;11.23;59.86
51245;BME280;37840;47.562;18.738;2023-04-23T00:18:16;99506.28;;;11.20;60.52
51245;BME280;37840;47.562;18.738;2023-04-23T00:20:42;99503.09;;;11.15;60.04
51245;BME280;37840;47.562;18.738;2023-04-23T00:23:08;99501.28;;;11.15;60.01
51245;BME280;37840;47.562;18.738;2023-04-23T00:25:34;99506.75;;;11.14;60.34
51245;BME280;37840;47.562;18.738;2023-04-23T00:28:00;99499.59;;;11.14;60.39
51245;BME280;37840;47.562;18.738;2023-04-23T00:30:26;99499.59;;;11.14;60.14
51245;BME280;37840;47.562;18.738;2023-04-23T00:32:52;99498.03;;;11.12;60.64
51245;BME280;37840;47.562;18.738;2023-04-23T00:35:18;99496.69;;;11.06;60.64
51245;BME280;37840;47.562;18.738;2023-04-23T00:37:45;99500.53;;;11.02;61.15
51245;BME280;37840;47.562;18.738;2023-04-23T00:40:11;99498.00;;;11.00;61.22
51245;BME280;37840;47.562;18.738;2023-04-23T00:42:38;99494.38;;;11.01;60.98
51245;BME280;37840;47.562;18.738;2023-04-23T00:45:07;99484.47;;;11.04;60.67
51245;BME280;37840;47.562;18.738;2023-04-23T00:47:34;99493.19;;;11.06;60.62
51245;BME280;37840;47.562;18.738;2023-04-23T00:50:01;99485.09;;;11.07;60.40
51245;BME280;37840;47.562;18.738;2023-04-23T00:52:27;99488.59;;;11.08;59.93
51245;BME280;37840;47.562;18.738;2023-04-23T00:54:54;99492.72;;;11.12;60.28
51245;BME280;37840;47.562;18.738;2023-04-23T00:57:21;99484.94;;;11.09;60.41
51245;BME280;37840;47.562;18.738;2023-04-23T00:59:48;99485.56;;;11.12;60.56
51245;BME280;37840;47.562;18.738;2023-04-23T01:02:15;99487.75;;;11.07;60.80
51245;BME280;37840;47.562;18.738;2023-04-23T01:04:42;99489.53;;;11.07;60.35
51245;BME280;37840;47.562;18.738;2023-04-23T01:07:10;99490.87;;;11.01;60.95
51245;BME280;37840;47.562;18.738;2023-04-23T01:09:37;99488.22;;;11.01;60.55
51245;BME280;37840;47.562;18.738;2023-04-23T01:12:08;99490.87;;;11.01;61.70
51245;BME280;37840;47.562;18.738;2023-04-23T01:14:36;99488.31;;;10.88;62.05
51245;BME280;37840;47.562;18.738;2023-04-23T01:17:03;99484.19;;;10.84;62.06
51245;BME280;37840;47.562;18.738;2023-04-23T01:19:29;99490.94;;;10.77;61.82
51245;BME280;37840;47.562;18.738;2023-04-23T01:21:55;99486.22;;;10.69;62.21
51245;BME280;37840;47.562;18.738;2023-04-23T01:24:24;99485.00;;;10.73;61.57
51245;BME280;37840;47.562;18.738;2023-04-23T01:26:50;99487.53;;;10.75;61.91
51245;BME280;37840;47.562;18.738;2023-04-23T01:29:17;99488.50;;;10.74;62.14
51245;BME280;37840;47.562;18.738;2023-04-23T01:31:43;99487.16;;;10.68;62.40
51245;BME280;37840;47.562;18.738;2023-04-23T01:34:10;99487.16;;;10.68;62.51
51245;BME280;37840;47.562;18.738;2023-04-23T01:36:36;99486.78;;;10.61;62.75
51245;BME280;37840;47.562;18.738;2023-04-23T01:39:02;99477.69;;;10.53;62.45
51245;BME280;37840;47.562;18.738;2023-04-23T01:41:28;99488.06;;;10.56;62.08
51245;BME280;37840;47.562;18.738;2023-04-23T01:43:56;99475.97;;;10.52;62.20
51245;BME280;37840;47.562;18.738;2023-04-23T01:46:22;99479.38;;;10.54;62.68
51245;BME280;37840;47.562;18.738;2023-04-23T01:48:48;99477.78;;;10.51;62.96
51245;BME280;37840;47.562;18.738;2023-04-23T01:51:14;99477.06;;;10.49;62.95
51245;BME280;37840;47.562;18.738;2023-04-23T01:53:40;99480.69;;;10.48;62.80
51245;BME280;37840;47.562;18.738;2023-04-23T01:56:07;99479.12;;;10.46;62.71
51245;BME280;37840;47.562;18.738;2023-04-23T01:58:34;99476.56;;;10.44;62.11
51245;BME280;37840;47.562;18.738;2023-04-23T02:01:01;99478.88;;;10.49;61.94
51245;BME280;37840;47.562;18.738;2023-04-23T02:03:30;99474.53;;;10.48;62.59
51245;BME280;37840;47.562;18.738;2023-04-23T02:05:57;99474.84;;;10.43;62.55
51245;BME280;37840;47.562;18.738;2023-04-23T02:08:24;99469.88;;;10.38;62.72
51245;BME280;37840;47.562;18.738;2023-04-23T02:10:50;99472.44;;;10.40;62.26
51245;BME280;37840;47.562;18.738;2023-04-23T02:13:16;99473.16;;;10.42;62.35
51245;BME280;37840;47.562;18.738;2023-04-23T02:15:42;99470.72;;;10.39;62.45
51245;BME280;37840;47.562;18.738;2023-04-23T02:18:08;99467.47;;;10.35;62.70
51245;BME280;37840;47.562;18.738;2023-04-23T02:20:35;99466.94;;;10.30;63.16
51245;BME280;37840;47.562;18.738;2023-04-23T02:23:06;99465.25;;;10.29;63.19
51245;BME280;37840;47.562;18.738;2023-04-23T02:25:32;99464.41;;;10.29;62.96
51245;BME280;37840;47.562;18.738;2023-04-23T02:27:58;99460.59;;;10.33;62.46
51245;BME280;37840;47.562;18.738;2023-04-23T02:30:26;99460.44;;;10.34;62.53
51245;BME280;37840;47.562;18.738;2023-04-23T02:32:52;99456.84;;;10.35;62.67
51245;BME280;37840;47.562;18.738;2023-04-23T02:35:18;99466.19;;;10.28;62.76
51245;BME280;37840;47.562;18.738;2023-04-23T02:37:44;99461.84;;;10.27;62.66
51245;BME280;37840;47.562;18.738;2023-04-23T02:40:10;99461.44;;;10.20;62.94
51245;BME280;37840;47.562;18.738;2023-04-23T02:42:36;99461.56;;;10.19;62.78
51245;BME280;37840;47.562;18.738;2023-04-23T02:45:03;99457.09;;;10.19;62.68
51245;BME280;37840;47.562;18.738;2023-04-23T02:47:29;99459.47;;;10.11;62.96
51245;BME280;37840;47.562;18.738;2023-04-23T02:49:55;99452.56;;;10.09;62.97
51245;BME280;37840;47.562;18.738;2023-04-23T02:52:22;99450.81;;;9.96;63.29
51245;BME280;37840;47.562;18.738;2023-04-23T02:54:48;99452.41;;;9.99;63.48
51245;BME280;37840;47.562;18.738;2023-04-23T02:57:14;99450.81;;;9.96;63.79
51245;BME280;37840;47.562;18.738;2023-04-23T02:59:41;99445.37;;;9.98;63.83
51245;BME280;37840;47.562;18.738;2023-04-23T03:02:07;99450.19;;;9.93;63.84
51245;BME280;37840;47.562;18.738;2023-04-23T03:04:33;99448.81;;;9.87;63.87
51245;BME280;37840;47.562;18.738;2023-04-23T03:06:59;99449.47;;;9.91;63.80
51245;BME280;37840;47.562;18.738;2023-04-23T03:09:25;99455.31;;;9.83;64.10
51245;BME280;37840;47.562;18.738;2023-04-23T03:11:51;99446.84;;;9.78;64.21
51245;BME280;37840;47.562;18.738;2023-04-23T03:14:17;99445.44;;;9.85;63.47
51245;BME280;37840;47.562;18.738;2023-04-23T03:16:43;99439.19;;;9.86;63.49
51245;BME280;37840;47.562;18.738;2023-04-23T03:19:09;99439.63;;;9.80;63.54
51245;BME280;37840;47.562;18.738;2023-04-23T03:21:35;99442.28;;;9.80;63.76
51245;BME280;37840;47.562;18.738;2023-04-23T03:24:01;99445.37;;;9.74;63.81
51245;BME280;37840;47.562;18.738;2023-04-23T03:26:27;99439.63;;;9.80;64.15
51245;BME280;37840;47.562;18.738;2023-04-23T03:28:53;99443.31;;;9.77;64.09
51245;BME280;37840;47.562;18.738;2023-04-23T03:31:19;99449.59;;;9.76;64.14
51245;BME280;37840;47.562;18.738;2023-04-23T03:33:44;99447.69;;;9.78;63.68
51245;BME280;37840;47.562;18.738;2023-04-23T03:36:10;99440.38;;;9.82;63.74
51245;BME280;37840;47.562;18.738;2023-04-23T03:38:36;99452.78;;;9.82;63.61
51245;BME280;37840;47.562;18.738;2023-04-23T03:41:02;99452.91;;;9.80;63.99
51245;BME280;37840;47.562;18.738;2023-04-23T03:43:28;99453.84;;;9.79;64.19
51245;BME280;37840;47.562;18.738;2023-04-23T03:45:54;99460.13;;;9.78;64.54
51245;BME280;37840;47.562;18.738;2023-04-23T03:48:20;99459.41;;;9.76;64.62
51245;BME280;37840;47.562;18.738;2023-04-23T03:50:46;99457.06;;;9.71;64.20
51245;BME280;37840;47.562;18.738;2023-04-23T03:53:12;99451.22;;;9.66;64.37
51245;BME280;37840;47.562;18.738;2023-04-23T03:55:38;99459.44;;;9.63;64.57
51245;BME280;37840;47.562;18.738;2023-04-23T03:58:04;99449.16;;;9.58;64.85
51245;BME280;37840;47.562;18.738;2023-04-23T04:00:30;99458.88;;;9.58;64.76
51245;BME280;37840;47.562;18.738;2023-04-23T04:02:55;99451.81;;;9.58;64.69
51245;BME280;37840;47.562;18.738;2023-04-23T04:05:22;99456.03;;;9.61;64.70
51245;BME280;37840;47.562;18.738;2023-04-23T04:07:48;99452.94;;;9.67;64.85
51245;BME280;37840;47.562;18.738;2023-04-23T04:10:14;99458.84;;;9.71;64.65
51245;BME280;37840;47.562;18.738;2023-04-23T04:12:40;99455.38;;;9.70;64.55
51245;BME280;37840;47.562;18.738;2023-04-23T04:15:07;99456.09;;;9.72;64.54
51245;BME280;37840;47.562;18.738;2023-04-23T04:17:33;99460.16;;;9.65;64.86
51245;BME280;37840;47.562;18.738;2023-04-23T04:19:59;99457.41;;;9.54;65.01
51245;BME280;37840;47.562;18.738;2023-04-23T04:22:25;99465.72;;;9.49;65.48
51245;BME280;37840;47.562;18.738;2023-04-23T04:24:51;99463.06;;;9.49;65.55
51245;BME280;37840;47.562;18.738;2023-04-23T04:27:17;99466.69;;;9.48;65.66
51245;BME280;37840;47.562;18.738;2023-04-23T04:29:47;99460.19;;;9.52;66.16
51245;BME280;37840;47.562;18.738;2023-04-23T04:32:14;99458.38;;;9.53;65.69
51245;BME280;37840;47.562;18.738;2023-04-23T04:34:40;99467.50;;;9.62;66.18
51245;BME280;37840;47.562;18.738;2023-04-23T04:37:06;99474.38;;;9.64;65.88
51245;BME280;37840;47.562;18.738;2023-04-23T04:39:32;99472.12;;;9.71;65.55
51245;BME280;37840;47.562;18.738;2023-04-23T04:41:58;99472.66;;;9.76;65.78
51245;BME280;37840;47.562;18.738;2023-04-23T04:44:24;99472.22;;;9.82;65.79
51245;BME280;37840;47.562;18.738;2023-04-23T04:46:50;99470.56;;;9.92;65.69
51245;BME280;37840;47.562;18.738;2023-04-23T04:49:17;99475.25;;;10.02;65.77
51245;BME280;37840;47.562;18.738;2023-04-23T04:51:44;99475.41;;;10.11;65.67
51245;BME280;37840;47.562;18.738;2023-04-23T04:54:10;99472.56;;;10.26;65.40
51245;BME280;37840;47.562;18.738;2023-04-23T04:56:36;99469.81;;;10.51;68.97
51245;BME280;37840;47.562;18.738;2023-04-23T04:59:02;99470.94;;;10.60;72.91
51245;BME280;37840;47.562;18.738;2023-04-23T05:01:30;99473.63;;;10.36;72.47
51245;BME280;37840;47.562;18.738;2023-04-23T05:04:14;99475.31;;;10.61;71.34
51245;BME280;37840;47.562;18.738;2023-04-23T05:06:40;99481.19;;;10.53;74.36
51245;BME280;37840;47.562;18.738;2023-04-23T05:09:06;99479.91;;;10.22;77.74
51245;BME280;37840;47.562;18.738;2023-04-23T05:11:33;99483.56;;;10.45;74.62
51245;BME280;37840;47.562;18.738;2023-04-23T05:14:00;99478.13;;;10.47;73.01
51245;BME280;37840;47.562;18.738;2023-04-23T05:16:47;99483.88;;;10.29;72.10
51245;BME280;37840;47.562;18.738;2023-04-23T05:19:13;99482.03;;;10.06;71.42
51245;BME280;37840;47.562;18.738;2023-04-23T05:21:39;99483.37;;;10.11;72.06
51245;BME280;37840;47.562;18.738;2023-04-23T05:24:06;99481.94;;;10.31;72.61
51245;BME280;37840;47.562;18.738;2023-04-23T05:26:32;99484.53;;;10.44;71.80
51245;BME280;37840;47.562;18.738;2023-04-23T05:28:57;99486.28;;;10.56;70.47
51245;BME280;37840;47.562;18.738;2023-04-23T05:31:24;99486.66;;;10.63;70.20
51245;BME280;37840;47.562;18.738;2023-04-23T05:33:50;99492.75;;;10.76;68.59
51245;BME280;37840;47.562;18.738;2023-04-23T05:36:16;99489.38;;;10.86;68.25
51245;BME280;37840;47.562;18.738;2023-04-23T05:38:42;99485.88;;;10.96;68.06
51245;BME280;37840;47.562;18.738;2023-04-23T05:41:08;99480.13;;;11.14;69.06
51245;BME280;37840;47.562;18.738;2023-04-23T05:43:34;99479.28;;;11.36;68.80
51245;BME280;37840;47.562;18.738;2023-04-23T05:46:00;99480.63;;;11.41;68.61
51245;BME280;37840;47.562;18.738;2023-04-23T05:48:28;99479.78;;;11.52;68.26
51245;BME280;37840;47.562;18.738;2023-04-23T05:50:54;99482.19;;;11.78;70.37
51245;BME280;37840;47.562;18.738;2023-04-23T05:53:20;99484.03;;;11.89;73.04
51245;BME280;37840;47.562;18.738;2023-04-23T05:55:46;99478.88;;;11.86;69.20
51245;BME280;37840;47.562;18.738;2023-04-23T05:58:12;99482.53;;;11.84;71.83
51245;BME280;37840;47.562;18.738;2023-04-23T06:00:39;99487.41;;;11.79;71.60
51245;BME280;37840;47.562;18.738;2023-04-23T06:03:05;99488.47;;;11.99;70.88
51245;BME280;37840;47.562;18.738;2023-04-23T06:05:31;99483.03;;;12.01;74.60
51245;BME280;37840;47.562;18.738;2023-04-23T06:07:57;99488.81;;;12.06;71.29
51245;BME280;37840;47.562;18.738;2023-04-23T06:10:23;99488.66;;;12.19;66.36
51245;BME280;37840;47.562;18.738;2023-04-23T06:12:49;99488.88;;;12.27;66.99
51245;BME280;37840;47.562;18.738;2023-04-23T06:15:15;99490.66;;;12.38;65.75
51245;BME280;37840;47.562;18.738;2023-04-23T06:17:41;99495.50;;;12.44;64.57
51245;BME280;37840;47.562;18.738;2023-04-23T06:20:07;99500.53;;;12.58;62.86
51245;BME280;37840;47.562;18.738;2023-04-23T06:22:35;99495.41;;;12.67;63.55
51245;BME280;37840;47.562;18.738;2023-04-23T06:25:01;99504.41;;;12.87;64.76
51245;BME280;37840;47.562;18.738;2023-04-23T06:27:27;99505.75;;;13.02;62.50
51245;BME280;37840;47.562;18.738;2023-04-23T06:29:53;99505.16;;;12.98;64.26
51245;BME280;37840;47.562;18.738;2023-04-23T06:32:20;99498.66;;;13.12;64.25
51245;BME280;37840;47.562;18.738;2023-04-23T06:34:46;99500.22;;;13.15;64.78
51245;BME280;37840;47.562;18.738;2023-04-23T06:37:12;99504.22;;;13.41;61.07
51245;BME280;37840;47.562;18.738;2023-04-23T06:39:38;99507.38;;;13.56;61.11
51245;BME280;37840;47.562;18.738;2023-04-23T06:42:03;99504.81;;;13.55;63.11
51245;BME280;37840;47.562;18.738;2023-04-23T06:44:29;99508.44;;;13.44;62.92
51245;BME280;37840;47.562;18.738;2023-04-23T06:46:55;99503.56;;;13.59;62.76
51245;BME280;37840;47.562;18.738;2023-04-23T06:49:21;99493.94;;;13.77;61.22
51245;BME280;37840;47.562;18.738;2023-04-23T06:51:47;99502.56;;;13.91;62.78
51245;BME280;37840;47.562;18.738;2023-04-23T06:54:36;99501.91;;;14.08;64.27
51245;BME280;37840;47.562;18.738;2023-04-23T07:07:17;99497.34;;;14.59;61.11
51245;BME280;37840;47.562;18.738;2023-04-23T07:09:43;99501.97;;;14.96;58.36
51245;BME280;37840;47.562;18.738;2023-04-23T07:12:10;99492.91;;;15.26;53.38
51245;BME280;37840;47.562;18.738;2023-04-23T07:14:36;99501.62;;;15.28;54.36
51245;BME280;37840;47.562;18.738;2023-04-23T07:17:01;99498.78;;;15.39;56.90
51245;BME280;37840;47.562;18.738;2023-04-23T07:19:27;99498.44;;;15.52;56.62
51245;BME280;37840;47.562;18.738;2023-04-23T07:21:53;99489.44;;;15.81;52.65
51245;BME280;37840;47.562;18.738;2023-04-23T07:24:19;99492.63;;;15.66;54.80
51245;BME280;37840;47.562;18.738;2023-04-23T07:26:45;99491.59;;;15.67;51.29
51245;BME280;37840;47.562;18.738;2023-04-23T07:29:11;99488.78;;;15.69;53.13
51245;BME280;37840;47.562;18.738;2023-04-23T07:31:38;99489.44;;;15.81;52.42
51245;BME280;37840;47.562;18.738;2023-04-23T07:34:06;99487.53;;;16.01;51.48
51245;BME280;37840;47.562;18.738;2023-04-23T07:36:32;99490.31;;;16.09;54.75
51245;BME280;37840;47.562;18.738;2023-04-23T07:38:58;99488.00;;;16.14;53.32
51245;BME280;37840;47.562;18.738;2023-04-23T07:41:24;99482.72;;;16.40;51.20
51245;BME280;37840;47.562;18.738;2023-04-23T07:43:50;99489.47;;;16.44;50.54
51245;BME280;37840;47.562;18.738;2023-04-23T07:46:16;99488.09;;;16.40;51.75
51245;BME280;37840;47.562;18.738;2023-04-23T07:48:42;99488.47;;;16.63;47.84
51245;BME280;37840;47.562;18.738;2023-04-23T07:51:08;99485.41;;;16.76;49.01
51245;BME280;37840;47.562;18.738;2023-04-23T07:53:34;99490.06;;;16.74;49.06
51245;BME280;37840;47.562;18.738;2023-04-23T07:56:00;99486.56;;;16.91;47.37
51245;BME280;37840;47.562;18.738;2023-04-23T07:58:26;99484.84;;;17.08;47.53
51245;BME280;37840;47.562;18.738;2023-04-23T08:00:52;99482.53;;;17.14;45.90
51245;BME280;37840;47.562;18.738;2023-04-23T08:03:18;99484.53;;;17.11;46.16
51245;BME280;37840;47.562;18.738;2023-04-23T08:05:44;99482.59;;;17.22;49.78
51245;BME280;37840;47.562;18.738;2023-04-23T08:08:11;99483.44;;;17.22;49.52
51245;BME280;37840;47.562;18.738;2023-04-23T08:10:37;99482.09;;;17.26;47.35
51245;BME280;37840;47.562;18.738;2023-04-23T08:13:03;99480.66;;;17.40;48.50
51245;BME280;37840;47.562;18.738;2023-04-23T08:15:29;99480.31;;;17.35;44.75
51245;BME280;37840;47.562;18.738;2023-04-23T08:17:55;99479.78;;;17.31;43.87
51245;BME280;37840;47.562;18.738;2023-04-23T08:20:21;99475.37;;;17.57;41.21
51245;BME280;37840;47.562;18.738;2023-04-23T08:22:47;99476.31;;;17.73;40.46
51245;BME280;37840;47.562;18.738;2023-04-23T08:25:12;99476.63;;;17.70;44.46
51245;BME280;37840;47.562;18.738;2023-04-23T08:27:38;99473.03;;;17.88;39.89
51245;BME280;37840;47.562;18.738;2023-04-23T08:30:05;99477.25;;;17.90;45.66
51245;BME280;37840;47.562;18.738;2023-04-23T08:32:31;99471.38;;;17.95;43.33
51245;BME280;37840;47.562;18.738;2023-04-23T08:34:57;99473.56;;;17.91;44.07
51245;BME280;37840;47.562;18.738;2023-04-23T08:37:23;99472.72;;;17.99;42.33
51245;BME280;37840;47.562;18.738;2023-04-23T08:39:50;99471.06;;;17.98;42.96
51245;BME280;37840;47.562;18.738;2023-04-23T10:09:00;99415.53;;;19.28;36.47
51245;BME280;37840;47.562;18.738;2023-04-23T10:11:26;99414.84;;;19.34;33.82
51245;BME280;37840;47.562;18.738;2023-04-23T10:13:52;99406.50;;;19.52;39.33
51245;BME280;37840;47.562;18.738;2023-04-23T10:16:21;99400.56;;;19.57;38.81
51245;BME280;37840;47.562;18.738;2023-04-23T10:18:49;99398.63;;;19.43;31.08
51245;BME280;37840;47.562;18.738;2023-04-23T10:21:17;99397.44;;;19.45;33.72
51245;BME280;37840;47.562;18.738;2023-04-23T10:23:46;99404.16;;;19.49;35.80
51245;BME280;37840;47.562;18.738;2023-04-23T10:26:14;99408.56;;;19.42;34.86
51245;BME280;37840;47.562;18.738;2023-04-23T10:28:46;99394.75;;;19.45;34.50
51245;BME280;37840;47.562;18.738;2023-04-23T10:31:13;99394.25;;;19.42;36.72
51245;BME280;37840;47.562;18.738;2023-04-23T10:33:40;99386.44;;;19.55;35.59
51245;BME280;37840;47.562;18.738;2023-04-23T10:36:08;99387.59;;;19.61;36.93
51245;BME280;37840;47.562;18.738;2023-04-23T10:38:34;99384.53;;;19.72;38.78
51245;BME280;37840;47.562;18.738;2023-04-23T10:41:01;99379.62;;;19.75;33.68
51245;BME280;37840;47.562;18.738;2023-04-23T10:43:28;99393.47;;;19.72;33.64
51245;BME280;37840;47.562;18.738;2023-04-23T10:45:54;99381.47;;;19.75;34.22
51245;BME280;37840;47.562;18.738;2023-04-23T10:48:19;99381.63;;;19.82;37.10
51245;BME280;37840;47.562;18.738;2023-04-23T10:50:46;99369.66;;;19.76;38.83
51245;BME280;37840;47.562;18.738;2023-04-23T10:53:19;99365.44;;;20.05;35.82
51245;BME280;37840;47.562;18.738;2023-04-23T10:55:46;99374.59;;;20.19;35.12
51245;BME280;37840;47.562;18.738;2023-04-23T10:58:12;99373.66;;;20.11;35.62
51245;BME280;37840;47.562;18.738;2023-04-23T11:03:38;99374.81;;;19.94;33.63
51245;BME280;37840;47.562;18.738;2023-04-23T11:06:07;99368.06;;;19.90;35.43
51245;BME280;37840;47.562;18.738;2023-04-23T11:08:34;99363.28;;;20.00;34.61
51245;BME280;37840;47.562;18.738;2023-04-23T11:11:06;99356.69;;;20.03;38.01
51245;BME280;37840;47.562;18.738;2023-04-23T11:13:33;99362.69;;;20.13;38.44
51245;BME280;37840;47.562;18.738;2023-04-23T11:16:11;99360.06;;;20.28;34.60
51245;BME280;37840;47.562;18.738;2023-04-23T11:19:00;99361.59;;;20.45;35.66
51245;BME280;37840;47.562;18.738;2023-04-23T11:24:43;99365.22;;;19.91;31.41
51245;BME280;37840;47.562;18.738;2023-04-23T11:27:13;99361.13;;;19.95;33.91
51245;BME280;37840;47.562;18.738;2023-04-23T11:29:41;99352.06;;;20.11;34.07
51245;BME280;37840;47.562;18.738;2023-04-23T11:32:08;99358.91;;;20.22;36.58
51245;BME280;37840;47.562;18.738;2023-04-23T11:34:39;99352.56;;;20.15;35.81
51245;BME280;37840;47.562;18.738;2023-04-23T11:37:05;99347.50;;;20.12;32.65
51245;BME280;37840;47.562;18.738;2023-04-23T11:39:34;99345.41;;;20.22;35.38
51245;BME280;37840;47.562;18.738;2023-04-23T11:42:00;99340.56;;;20.17;34.38
51245;BME280;37840;47.562;18.738;2023-04-23T11:44:28;99340.28;;;20.27;32.55
51245;BME280;37840;47.562;18.738;2023-04-23T11:46:58;99343.38;;;20.24;32.89
51245;BME280;37840;47.562;18.738;2023-04-23T11:49:25;99331.78;;;20.39;30.62
51245;BME280;37840;47.562;18.738;2023-04-23T11:51:51;99346.53;;;20.28;31.24
51245;BME280;37840;47.562;18.738;2023-04-23T11:54:17;99339.88;;;20.39;34.78
51245;BME280;37840;47.562;18.738;2023-04-23T11:56:44;99339.69;;;20.40;31.61
51245;BME280;37840;47.562;18.738;2023-04-23T12:02:15;99332.84;;;20.29;33.18
51245;BME280;37840;47.562;18.738;2023-04-23T12:04:42;99333.50;;;20.31;32.40
51245;BME280;37840;47.562;18.738;2023-04-23T12:07:08;99329.06;;;20.39;33.60
51245;BME280;37840;47.562;18.738;2023-04-23T12:09:34;99330.94;;;20.38;32.74
51245;BME280;37840;47.562;18.738;2023-04-23T12:12:01;99315.56;;;20.39;33.65
51245;BME280;37840;47.562;18.738;2023-04-23T12:14:28;99323.59;;;20.47;31.88
51245;BME280;37840;47.562;18.738;2023-04-23T12:16:55;99316.16;;;20.49;31.75
51245;BME280;37840;47.562;18.738;2023-04-23T12:19:27;99318.19;;;20.47;31.78
51245;BME280;37840;47.562;18.738;2023-04-23T12:21:58;99316.31;;;20.47;31.03
51245;BME280;37840;47.562;18.738;2023-04-23T12:24:26;99315.81;;;20.29;31.16
51245;BME280;37840;47.562;18.738;2023-04-23T12:26:54;99330.41;;;19.96;31.94
51245;BME280;37840;47.562;18.738;2023-04-23T12:29:21;99316.50;;;19.85;33.29
51245;BME280;37840;47.562;18.738;2023-04-23T12:31:49;99315.78;;;19.91;30.76
51245;BME280;37840;47.562;18.738;2023-04-23T12:34:15;99301.25;;;20.15;35.29
51245;BME280;37840;47.562;18.738;2023-04-23T12:36:53;99307.37;;;20.32;31.57
51245;BME280;37840;47.562;18.738;2023-04-23T12:39:20;99303.62;;;20.33;32.58
51245;BME280;37840;47.562;18.738;2023-04-23T12:41:49;99294.13;;;20.37;32.80
51245;BME280;37840;47.562;18.738;2023-04-23T12:44:15;99291.25;;;20.39;34.54
51245;BME280;37840;47.562;18.738;2023-04-23T12:46:41;99293.34;;;20.51;33.22
51245;BME280;37840;47.562;18.738;2023-04-23T12:49:07;99293.34;;;20.51;31.56
51245;BME280;37840;47.562;18.738;2023-04-23T12:51:33;99292.75;;;20.41;29.63
51245;BME280;37840;47.562;18.738;2023-04-23T12:53:59;99289.81;;;20.51;30.02
51245;BME280;37840;47.562;18.738;2023-04-23T12:56:25;99286.69;;;20.39;33.14
51245;BME280;37840;47.562;18.738;2023-04-23T12:58:51;99282.69;;;20.50;30.97
51245;BME280;37840;47.562;18.738;2023-04-23T13:01:17;99280.56;;;20.45;32.41
51245;BME280;37840;47.562;18.738;2023-04-23T13:03:43;99283.53;;;20.50;32.29
51245;BME280;37840;47.562;18.738;2023-04-23T13:06:09;99276.28;;;20.51;33.23
51245;BME280;37840;47.562;18.738;2023-04-23T13:08:35;99271.16;;;20.41;32.43
51245;BME280;37840;47.562;18.738;2023-04-23T13:11:01;99268.84;;;20.53;30.26
51245;BME280;37840;47.562;18.738;2023-04-23T13:13:27;99262.59;;;20.52;34.67
51245;BME280;37840;47.562;18.738;2023-04-23T13:15:53;99256.78;;;20.64;29.24
51245;BME280;37840;47.562;18.738;2023-04-23T13:18:20;99258.72;;;20.70;30.72
51245;BME280;37840;47.562;18.738;2023-04-23T13:20:47;99259.47;;;20.64;30.55
51245;BME280;37840;47.562;18.738;2023-04-23T13:23:13;99257.97;;;20.61;32.46
51245;BME280;37840;47.562;18.738;2023-04-23T13:25:39;99248.06;;;20.39;32.16
51245;BME280;37840;47.562;18.738;2023-04-23T13:28:05;99248.63;;;20.34;34.05
51245;BME280;37840;47.562;18.738;2023-04-23T13:30:31;99250.28;;;20.35;31.70
51245;BME280;37840;47.562;18.738;2023-04-23T13:32:57;99251.09;;;20.35;33.34
51245;BME280;37840;47.562;18.738;2023-04-23T13:35:24;99236.94;;;20.33;32.91
51245;BME280;37840;47.562;18.738;2023-04-23T13:52:05;99225.22;;;20.26;30.90
51245;BME280;37840;47.562;18.738;2023-04-23T14:01:22;99211.25;;;20.37;32.25
51245;BME280;37840;47.562;18.738;2023-04-23T14:09:36;99200.66;;;20.36;29.87
51245;BME280;37840;47.562;18.738;2023-04-23T14:12:03;99201.50;;;20.36;33.97
51245;BME280;37840;47.562;18.738;2023-04-23T14:14:32;99204.44;;;20.27;32.80
51245;BME280;37840;47.562;18.738;2023-04-23T14:16:58;99194.03;;;20.24;34.29
51245;BME280;37840;47.562;18.738;2023-04-23T14:19:24;99194.13;;;20.30;31.82
51245;BME280;37840;47.562;18.738;2023-04-23T14:53:22;99164.78;;;20.12;30.99
51245;BME280;37840;47.562;18.738;2023-04-23T14:55:48;99168.03;;;20.08;33.00
51245;BME280;37840;47.562;18.738;2023-04-23T14:58:14;99161.97;;;20.06;33.64
51245;BME280;37840;47.562;18.738;2023-04-23T15:33:13;99156.41;;;19.69;31.41
51245;BME280;37840;47.562;18.738;2023-04-23T15:35:39;99153.59;;;19.63;30.58
51245;BME280;37840;47.562;18.738;2023-04-23T15:38:04;99145.88;;;19.60;31.77
51245;BME280;37840;47.562;18.738;2023-04-23T15:40:30;99145.88;;;19.60;31.87
51245;BME280;37840;47.562;18.738;2023-04-23T15:42:57;99145.50;;;19.63;32.65
51245;BME280;37840;47.562;18.738;2023-04-23T15:45:23;99148.47;;;19.53;34.17
51245;BME280;37840;47.562;18.738;2023-04-23T15:47:50;99136.38;;;19.49;35.27
51245;BME280;37840;47.562;18.738;2023-04-23T15:50:16;99137.91;;;19.43;35.02
51245;BME280;37840;47.562;18.738;2023-04-23T15:52:47;99135.78;;;19.39;36.27
51245;BME280;37840;47.562;18.738;2023-04-23T15:55:12;99144.53;;;19.41;32.50
51245;BME280;37840;47.562;18.738;2023-04-23T15:57:38;99139.34;;;19.31;33.14
51245;BME280;37840;47.562;18.738;2023-04-23T16:00:05;99140.41;;;19.30;32.73
51245;BME280;37840;47.562;18.738;2023-04-23T16:02:36;99135.84;;;19.30;33.50
51245;BME280;37840;47.562;18.738;2023-04-23T16:05:02;99137.03;;;19.28;33.48
51245;BME280;37840;47.562;18.738;2023-04-23T16:07:29;99129.84;;;19.20;34.42